createdAt,value
2023-05-19T00:00:30.801Z,60.99
2023-05-19T00:03:21.822Z,61.15
2023-05-19T00:05:53.677Z,61.14
2023-05-19T00:08:24.744Z,61.37
2023-05-19T00:10:52.964Z,61.36
2023-05-19T00:13:21.800Z,61.40
2023-05-19T00:15:51.073Z,61.53
2023-05-19T00:18:19.202Z,61.65
2023-05-19T00:20:47.138Z,61.73
2023-05-19T00:23:15.175Z,61.78
2023-05-19T00:25:43.188Z,61.81
2023-05-19T00:28:11.159Z,61.95
2023-05-19T00:30:39.187Z,61.94
2023-05-19T00:33:07.211Z,62.05
2023-05-19T00:35:35.703Z,62.13
2023-05-19T00:38:03.794Z,62.13
2023-05-19T00:40:35.262Z,62.23
2023-05-19T00:43:05.532Z,62.34
2023-05-19T00:45:34.040Z,62.34
2023-05-19T00:48:02.135Z,62.38
2023-05-19T00:50:30.712Z,62.43
2023-05-19T00:52:59.786Z,62.49
2023-05-19T00:55:29.452Z,62.60
2023-05-19T00:57:57.961Z,62.52
2023-05-19T01:00:25.946Z,62.58
2023-05-19T01:02:54.363Z,62.69
2023-05-19T01:05:22.623Z,62.68
2023-05-19T01:07:55.594Z,62.72
2023-05-19T01:10:23.723Z,62.91
2023-05-19T01:12:51.719Z,62.83
2023-05-19T01:15:20.041Z,63.05
2023-05-19T01:17:55.042Z,63.19
2023-05-19T01:20:29.599Z,63.20
2023-05-19T01:23:06.763Z,63.25
2023-05-19T01:26:04.669Z,63.22
2023-05-19T01:28:46.562Z,63.38
2023-05-19T01:31:17.069Z,63.49
2023-05-19T01:33:46.573Z,63.49
2023-05-19T01:36:17.151Z,63.55
2023-05-19T01:38:46.215Z,63.62
2023-05-19T01:41:14.417Z,63.69
2023-05-19T01:43:43.000Z,63.82
2023-05-19T01:46:12.087Z,63.77
2023-05-19T01:48:40.988Z,63.82
2023-05-19T01:51:09.009Z,63.98
2023-05-19T01:53:37.208Z,64.09
2023-05-19T01:56:06.468Z,64.12
2023-05-19T01:58:47.798Z,64.20
2023-05-19T02:01:24.858Z,64.31
2023-05-19T02:04:11.266Z,64.39
2023-05-19T02:06:49.845Z,64.47
2023-05-19T02:09:34.379Z,64.64
2023-05-19T02:12:10.958Z,64.60
2023-05-19T02:14:45.798Z,64.60
2023-05-19T02:17:16.819Z,64.65
2023-05-19T02:19:45.269Z,64.73
2023-05-19T02:22:13.336Z,65.05
2023-05-19T02:24:41.531Z,65.06
2023-05-19T02:27:09.518Z,65.04
2023-05-19T02:29:37.733Z,65.35
2023-05-19T02:32:07.376Z,65.32
2023-05-19T02:34:35.821Z,65.42
2023-05-19T02:37:07.733Z,65.56
2023-05-19T02:39:35.985Z,65.75
2023-05-19T02:42:04.273Z,65.70
2023-05-19T02:44:32.500Z,65.71
2023-05-19T02:47:00.773Z,65.73
2023-05-19T02:49:35.862Z,65.84
2023-05-19T02:52:04.955Z,65.90
2023-05-19T02:54:34.738Z,65.91
2023-05-19T02:57:02.849Z,65.90
2023-05-19T02:59:31.431Z,65.87
2023-05-19T03:02:01.613Z,66.04
2023-05-19T03:04:30.187Z,66.10
2023-05-19T03:06:58.264Z,66.18
2023-05-19T03:09:26.390Z,66.23
2023-05-19T03:11:54.422Z,66.26
2023-05-19T03:14:24.133Z,66.29
2023-05-19T03:16:52.448Z,66.30
2023-05-19T03:19:20.863Z,66.45
2023-05-19T03:21:49.671Z,66.57
2023-05-19T03:24:18.217Z,66.60
2023-05-19T03:26:46.481Z,66.73
2023-05-19T03:29:14.950Z,66.75
2023-05-19T03:31:43.198Z,66.80
2023-05-19T03:34:11.403Z,66.97
2023-05-19T03:36:39.922Z,66.98
2023-05-19T03:39:11.831Z,67.06
2023-05-19T03:41:40.347Z,67.08
2023-05-19T03:44:08.283Z,67.15
2023-05-19T03:46:36.390Z,67.18
2023-05-19T03:49:23.298Z,67.21
2023-05-19T03:52:10.096Z,67.22
2023-05-19T03:54:53.885Z,67.31
2023-05-19T03:57:22.570Z,67.36
2023-05-19T03:59:50.754Z,67.38
2023-05-19T04:02:18.856Z,67.39
2023-05-19T04:04:50.753Z,67.37
2023-05-19T04:07:18.905Z,67.44
2023-05-19T04:09:48.668Z,67.41
2023-05-19T04:12:16.731Z,67.42
2023-05-19T04:14:44.691Z,67.61
2023-05-19T04:17:12.811Z,67.45
2023-05-19T04:19:41.104Z,67.36
2023-05-19T04:22:08.974Z,67.38
2023-05-19T04:24:37.678Z,67.49
2023-05-19T04:27:11.914Z,67.53
2023-05-19T04:29:41.036Z,67.45
2023-05-19T04:32:10.822Z,67.49
2023-05-19T04:34:40.856Z,67.39
2023-05-19T04:37:10.285Z,67.26
2023-05-19T04:39:40.387Z,67.45
2023-05-19T04:42:10.072Z,68.28
2023-05-19T04:44:40.277Z,69.02
2023-05-19T04:47:09.274Z,68.35
2023-05-19T04:49:40.842Z,68.18
2023-05-19T04:52:10.959Z,68.24
2023-05-19T04:54:40.253Z,68.33
2023-05-19T04:57:08.559Z,68.69
2023-05-19T04:59:38.645Z,69.17
2023-05-19T05:02:08.034Z,69.00
2023-05-19T05:04:36.482Z,67.85
2023-05-19T05:07:04.523Z,67.79
2023-05-19T05:09:32.466Z,67.84
2023-05-19T05:12:02.194Z,67.77
2023-05-19T05:14:31.271Z,67.71
2023-05-19T05:16:59.477Z,67.81
2023-05-19T05:19:27.800Z,67.96
2023-05-19T05:21:56.444Z,67.94
2023-05-19T05:24:24.894Z,67.99
2023-05-19T05:26:55.755Z,67.92
2023-05-19T05:29:24.133Z,67.92
2023-05-19T05:31:52.268Z,67.88
2023-05-19T05:34:20.344Z,68.08
2023-05-19T05:36:48.524Z,68.22
2023-05-19T05:39:19.876Z,68.23
2023-05-19T05:41:48.025Z,68.26
2023-05-19T05:44:15.991Z,68.14
2023-05-19T05:46:45.554Z,68.12
2023-05-19T05:49:13.874Z,68.29
2023-05-19T05:51:54.294Z,68.14
2023-05-19T05:54:32.845Z,68.16
2023-05-19T05:57:02.667Z,68.26
2023-05-19T05:59:33.184Z,68.28
2023-05-19T06:02:01.503Z,68.29
2023-05-19T06:04:30.212Z,68.29
2023-05-19T06:07:01.275Z,68.17
2023-05-19T06:09:32.929Z,68.01
2023-05-19T06:12:01.689Z,68.18
2023-05-19T06:14:32.947Z,68.30
2023-05-19T06:17:30.377Z,68.24
2023-05-19T06:19:58.593Z,68.28
2023-05-19T06:22:27.878Z,68.34
2023-05-19T06:24:56.348Z,68.21
2023-05-19T06:27:24.392Z,68.05
2023-05-19T06:29:53.089Z,68.02
2023-05-19T06:32:21.322Z,67.97
2023-05-19T06:34:54.662Z,67.64
2023-05-19T06:37:24.536Z,67.41
2023-05-19T06:39:54.569Z,67.33
2023-05-19T06:42:23.107Z,67.48
2023-05-19T06:44:58.060Z,67.36
2023-05-19T06:47:27.771Z,67.57
2023-05-19T06:49:55.999Z,67.52
2023-05-19T06:52:26.802Z,67.39
2023-05-19T06:54:55.458Z,66.94
2023-05-19T06:57:23.786Z,66.85
2023-05-19T06:59:52.544Z,66.64
2023-05-19T07:02:20.899Z,66.60
2023-05-19T07:04:49.130Z,66.41
2023-05-19T07:07:17.434Z,66.09
2023-05-19T07:09:45.942Z,66.19
2023-05-19T07:12:14.273Z,66.23
2023-05-19T07:14:42.434Z,66.17
2023-05-19T07:17:11.200Z,66.11
2023-05-19T07:19:41.429Z,66.02
2023-05-19T07:22:09.772Z,65.86
2023-05-19T07:24:37.793Z,65.76
2023-05-19T07:27:05.816Z,65.81
2023-05-19T07:29:33.830Z,65.84
2023-05-19T07:32:01.850Z,65.79
2023-05-19T07:34:29.938Z,65.95
2023-05-19T07:36:57.981Z,66.15
2023-05-19T07:39:29.562Z,66.16
2023-05-19T07:41:57.673Z,66.17
2023-05-19T07:44:27.168Z,66.15
2023-05-19T07:46:55.261Z,66.18
2023-05-19T07:49:23.435Z,66.34
2023-05-19T07:51:51.896Z,66.30
2023-05-19T07:54:21.355Z,66.37
2023-05-19T07:56:49.494Z,66.43
2023-05-19T07:59:17.421Z,66.38
2023-05-19T08:01:45.725Z,66.38
2023-05-19T08:04:14.198Z,66.42
2023-05-19T08:06:44.388Z,66.39
2023-05-19T08:09:12.483Z,66.40
2023-05-19T08:11:40.564Z,66.45
2023-05-19T08:14:08.586Z,66.41
2023-05-19T08:16:36.595Z,66.56
2023-05-19T08:19:06.861Z,66.59
2023-05-19T08:21:35.631Z,66.79
2023-05-19T08:24:04.383Z,66.83
2023-05-19T08:26:32.333Z,66.89
2023-05-19T08:29:00.361Z,66.91
2023-05-19T08:31:28.362Z,67.00
2023-05-19T08:33:56.640Z,66.86
2023-05-19T08:36:24.953Z,66.87
2023-05-19T08:38:52.927Z,66.98
2023-05-19T08:41:22.886Z,66.91
2023-05-19T08:43:50.970Z,66.84
2023-05-19T08:46:21.903Z,66.98
2023-05-19T08:48:54.878Z,67.12
2023-05-19T08:51:57.534Z,67.17
2023-05-19T08:54:33.730Z,67.23
2023-05-19T08:57:02.316Z,67.43
2023-05-19T08:59:30.818Z,67.53
2023-05-19T09:01:59.333Z,67.41
2023-05-19T09:04:29.980Z,67.34
2023-05-19T09:07:02.651Z,67.47
2023-05-19T09:09:30.805Z,67.45
2023-05-19T09:11:58.897Z,67.47
2023-05-19T09:14:26.917Z,67.73
2023-05-19T09:16:55.236Z,67.52
2023-05-19T09:19:23.434Z,67.56
2023-05-19T09:22:01.402Z,67.62
2023-05-19T09:24:29.705Z,67.69
2023-05-19T09:27:00.015Z,67.72
2023-05-19T09:29:28.370Z,67.74
2023-05-19T09:32:06.117Z,67.79
2023-05-19T09:34:34.358Z,67.88
2023-05-19T09:37:02.337Z,67.74
2023-05-19T09:39:30.489Z,67.63
2023-05-19T09:41:58.827Z,67.48
2023-05-19T09:44:30.705Z,67.57
2023-05-19T09:46:59.827Z,67.72
2023-05-19T09:49:30.335Z,67.64
2023-05-19T09:52:00.126Z,67.68
2023-05-19T09:54:29.819Z,67.46
2023-05-19T09:57:03.646Z,67.43
2023-05-19T09:59:33.673Z,67.29
2023-05-19T10:02:02.924Z,67.21
2023-05-19T10:04:31.878Z,67.17
2023-05-19T10:07:05.550Z,67.30
2023-05-19T10:09:36.374Z,67.20
2023-05-19T10:12:05.608Z,67.04
2023-05-19T10:14:33.579Z,67.01
2023-05-19T10:17:01.668Z,66.74
2023-05-19T10:19:30.022Z,66.76
2023-05-19T10:21:58.198Z,66.66
2023-05-19T10:24:26.725Z,66.64
2023-05-19T10:27:04.007Z,66.42
2023-05-19T10:29:36.576Z,66.62
2023-05-19T10:32:12.039Z,66.83
2023-05-19T10:35:08.174Z,66.60
2023-05-19T10:37:58.933Z,66.55
2023-05-19T10:40:29.630Z,66.37
2023-05-19T10:43:08.895Z,66.26
2023-05-19T10:45:46.012Z,66.17
2023-05-19T10:48:16.083Z,65.98
2023-05-19T10:50:46.742Z,65.97
2023-05-19T10:53:18.591Z,65.89
2023-05-19T10:56:00.138Z,65.78
2023-05-19T10:58:36.985Z,65.68
2023-05-19T11:01:15.813Z,65.69
2023-05-19T11:03:53.927Z,65.71
2023-05-19T11:06:33.074Z,65.57
2023-05-19T11:09:10.362Z,65.66
2023-05-19T11:11:49.929Z,65.75
2023-05-19T11:14:21.087Z,65.77
2023-05-19T11:16:59.389Z,65.51
2023-05-19T11:19:29.469Z,65.42
2023-05-19T11:22:08.943Z,65.37
2023-05-19T11:24:42.845Z,65.16
2023-05-19T11:27:33.455Z,65.05
2023-05-19T11:30:20.190Z,64.99
2023-05-19T11:32:48.540Z,64.93
2023-05-19T11:35:19.122Z,64.87
2023-05-19T11:37:49.096Z,65.07
2023-05-19T11:40:18.023Z,65.01
2023-05-19T11:42:46.174Z,65.12
2023-05-19T11:45:14.339Z,64.94
2023-05-19T11:48:00.853Z,64.76
2023-05-19T11:50:31.369Z,64.51
2023-05-19T11:53:01.051Z,64.38
2023-05-19T11:55:29.692Z,64.12
2023-05-19T11:58:04.690Z,64.22
2023-05-19T12:00:39.979Z,64.14
2023-05-19T12:03:09.687Z,64.03
2023-05-19T12:05:43.541Z,64.00
2023-05-19T12:08:12.814Z,64.16
2023-05-19T12:10:41.141Z,64.15
2023-05-19T12:13:10.181Z,63.91
2023-05-19T12:15:39.157Z,63.89
2023-05-19T12:18:07.683Z,63.90
2023-05-19T12:20:36.426Z,63.90
2023-05-19T12:23:05.220Z,63.90
2023-05-19T12:25:33.602Z,63.98
2023-05-19T12:28:05.445Z,63.97
2023-05-19T12:30:34.725Z,64.04
2023-05-19T12:33:03.602Z,63.81
2023-05-19T12:35:34.056Z,63.83
2023-05-19T12:38:06.648Z,63.93
2023-05-19T12:40:36.306Z,63.82
2023-05-19T12:43:05.621Z,63.89
2023-05-19T12:45:38.327Z,63.94
2023-05-19T12:48:11.774Z,63.93
2023-05-19T12:50:40.023Z,63.94
2023-05-19T12:53:15.179Z,63.74
2023-05-19T12:55:45.517Z,63.59
2023-05-19T12:58:15.782Z,63.67
2023-05-19T13:00:47.496Z,63.73
2023-05-19T13:03:15.956Z,63.92
2023-05-19T13:05:48.200Z,63.98
2023-05-19T13:08:21.706Z,63.88
2023-05-19T13:10:50.153Z,63.90
2023-05-19T13:13:18.670Z,64.05
2023-05-19T13:15:50.910Z,64.05
2023-05-19T13:18:19.180Z,63.95
2023-05-19T13:20:49.214Z,64.09
2023-05-19T13:23:17.370Z,64.17
2023-05-19T13:25:45.539Z,64.01
2023-05-19T13:28:13.474Z,64.03
2023-05-19T13:30:43.455Z,63.98
2023-05-19T13:33:12.030Z,64.12
2023-05-19T13:35:40.226Z,64.20
2023-05-19T13:38:10.299Z,64.12
2023-05-19T13:40:40.269Z,64.20
2023-05-19T13:45:56.791Z,64.29
2023-05-19T13:48:25.017Z,64.35
2023-05-19T13:50:55.702Z,64.31
2023-05-19T13:51:32.962Z,64.25
2023-05-19T13:53:23.645Z,64.30
2023-05-19T13:55:53.045Z,64.29
2023-05-19T13:58:21.126Z,64.34
2023-05-19T14:00:51.128Z,64.28
2023-05-19T14:03:19.915Z,64.45
2023-05-19T14:05:50.812Z,64.45
2023-05-19T14:08:19.124Z,64.47
2023-05-19T14:10:47.471Z,64.42
2023-05-19T14:13:31.424Z,64.61
2023-05-19T14:16:02.363Z,64.55
2023-05-19T14:18:31.035Z,64.45
2023-05-19T14:20:59.021Z,64.52
2023-05-19T14:23:27.931Z,64.59
2023-05-19T14:25:56.531Z,64.68
2023-05-19T14:28:24.578Z,64.88
2023-05-19T14:30:52.714Z,64.99
2023-05-19T14:33:21.334Z,64.99
2023-05-19T14:35:49.285Z,64.97
2023-05-19T14:38:17.275Z,65.03
2023-05-19T14:40:45.667Z,65.16
2023-05-19T14:43:13.969Z,65.25
2023-05-19T14:45:42.177Z,65.37
2023-05-19T14:48:13.527Z,65.43
2023-05-19T14:50:41.703Z,65.50
2023-05-19T14:53:09.830Z,65.61
2023-05-19T14:55:37.823Z,65.58
2023-05-19T14:58:15.848Z,65.61
2023-05-19T15:00:48.262Z,65.68
2023-05-19T15:03:16.415Z,65.95
2023-05-19T15:05:45.450Z,65.98
2023-05-19T15:08:13.455Z,65.94
2023-05-19T15:10:41.460Z,65.84
2023-05-19T15:13:09.383Z,65.80
2023-05-19T15:15:37.365Z,65.94
2023-05-19T15:18:05.321Z,65.95
2023-05-19T15:20:33.555Z,66.02
2023-05-19T15:23:01.802Z,66.01
2023-05-19T15:25:30.081Z,65.90
2023-05-19T15:27:58.030Z,66.08
2023-05-19T15:30:26.119Z,66.23
2023-05-19T15:32:54.221Z,66.25
2023-05-19T15:35:22.278Z,66.24
2023-05-19T15:37:50.291Z,66.47
2023-05-19T15:40:18.381Z,66.62
2023-05-19T15:42:46.299Z,66.70
2023-05-19T15:45:14.296Z,66.67
2023-05-19T15:47:42.368Z,66.71
2023-05-19T15:50:10.558Z,66.82
2023-05-19T15:52:38.489Z,66.94
2023-05-19T15:55:07.098Z,67.04
2023-05-19T15:57:35.339Z,66.94
2023-05-19T16:00:03.799Z,66.85
2023-05-19T16:02:33.722Z,66.96
2023-05-19T16:05:01.890Z,66.92
2023-05-19T16:07:29.922Z,67.00
2023-05-19T16:09:58.065Z,66.72
2023-05-19T16:12:27.525Z,66.65
2023-05-19T16:14:55.632Z,66.68
2023-05-19T16:17:23.634Z,66.70
2023-05-19T16:19:51.626Z,66.80
2023-05-19T16:22:20.091Z,66.64
2023-05-19T16:24:48.819Z,66.55
2023-05-19T16:27:16.962Z,66.53
2023-05-19T16:29:44.963Z,66.55
2023-05-19T16:32:13.105Z,66.44
2023-05-19T16:34:41.238Z,66.48
2023-05-19T16:37:09.277Z,66.54
2023-05-19T16:39:37.409Z,66.53
2023-05-19T16:42:05.530Z,66.61
2023-05-19T16:44:33.586Z,66.58
2023-05-19T16:47:01.643Z,66.64
2023-05-19T16:49:29.737Z,66.61
2023-05-19T16:51:57.686Z,66.74
2023-05-19T16:54:25.934Z,66.88
2023-05-19T16:56:53.929Z,66.96
2023-05-19T16:59:21.919Z,66.82
2023-05-19T17:01:50.202Z,66.85
2023-05-19T17:04:18.322Z,66.87
2023-05-19T17:06:46.492Z,67.09
2023-05-19T17:09:14.484Z,67.07
2023-05-19T17:11:42.486Z,67.08
2023-05-19T17:14:10.568Z,67.04
2023-05-19T17:16:38.545Z,67.11
2023-05-19T17:19:06.612Z,67.17
2023-05-19T17:21:34.935Z,67.09
2023-05-19T17:24:03.372Z,67.20
2023-05-19T17:26:31.372Z,67.22
2023-05-19T17:28:59.390Z,67.47
2023-05-19T17:31:27.655Z,67.44
2023-05-19T17:33:57.844Z,67.47
2023-05-19T17:36:26.460Z,67.48
2023-05-19T17:38:54.626Z,67.48
2023-05-19T17:41:22.796Z,67.67
2023-05-19T17:43:50.793Z,67.65
2023-05-19T17:46:18.795Z,67.72
2023-05-19T17:48:46.726Z,67.70
2023-05-19T17:51:14.685Z,67.76
2023-05-19T17:53:43.083Z,67.89
2023-05-19T17:56:12.550Z,67.92
2023-05-19T17:58:41.386Z,67.99
2023-05-19T18:01:10.957Z,68.15
2023-05-19T18:03:39.487Z,68.20
2023-05-19T18:06:08.094Z,68.26
2023-05-19T18:08:37.694Z,68.36
2023-05-19T18:11:06.060Z,68.45
2023-05-19T18:13:34.097Z,68.64
2023-05-19T18:16:02.410Z,68.68
2023-05-19T18:18:30.476Z,68.79
2023-05-19T18:20:58.406Z,68.91
2023-05-19T18:23:26.635Z,68.93
2023-05-19T18:25:54.699Z,69.12
2023-05-19T18:28:23.804Z,69.20
2023-05-19T18:31:03.700Z,69.28
2023-05-19T18:33:32.367Z,69.43
2023-05-19T18:36:00.506Z,69.54
2023-05-19T18:38:28.558Z,69.64
2023-05-19T18:40:56.890Z,69.70
2023-05-19T18:43:25.038Z,69.85
2023-05-19T18:45:53.027Z,69.94
2023-05-19T18:48:22.567Z,69.89
2023-05-19T18:50:50.708Z,70.00
2023-05-19T18:53:18.757Z,70.12
2023-05-19T18:55:46.852Z,70.19
2023-05-19T18:58:14.984Z,70.18
2023-05-19T19:00:43.087Z,70.28
2023-05-19T19:03:11.934Z,70.42
2023-05-19T19:05:40.521Z,70.36
2023-05-19T19:08:08.666Z,70.45
2023-05-19T19:10:39.199Z,70.57
2023-05-19T19:13:07.440Z,70.71
2023-05-19T19:15:36.182Z,70.86
2023-05-19T19:18:05.545Z,70.90
2023-05-19T19:20:35.062Z,70.91
2023-05-19T19:23:06.530Z,71.10
2023-05-19T19:25:35.070Z,71.18
2023-05-19T19:28:03.643Z,71.22
2023-05-19T19:30:32.001Z,71.33
2023-05-19T19:33:00.384Z,71.42
2023-05-19T19:35:28.979Z,71.35
2023-05-19T19:38:04.370Z,71.57
2023-05-19T19:40:32.904Z,71.75
2023-05-19T19:43:01.261Z,71.71
2023-05-19T19:45:29.340Z,71.88
2023-05-19T19:47:57.285Z,71.89
2023-05-19T19:50:25.958Z,71.89
2023-05-19T19:52:54.416Z,72.12
2023-05-19T19:55:22.816Z,72.15
2023-05-19T19:57:51.330Z,72.13
2023-05-19T20:00:19.397Z,72.34
2023-05-19T20:03:03.778Z,72.49
2023-05-19T20:05:33.066Z,72.40
2023-05-19T20:08:04.237Z,72.51
2023-05-19T20:10:32.382Z,72.52
2023-05-19T20:13:00.687Z,72.67
2023-05-19T20:15:28.595Z,72.66
2023-05-19T20:17:56.601Z,72.71
2023-05-19T20:20:26.359Z,72.65
2023-05-19T20:22:54.347Z,72.75
2023-05-19T20:25:22.387Z,72.82
2023-05-19T20:27:50.453Z,72.81
2023-05-19T20:30:18.467Z,72.97
2023-05-19T20:32:46.836Z,72.94
2023-05-19T20:35:17.527Z,73.06
2023-05-19T20:37:45.515Z,73.14
2023-05-19T20:40:13.757Z,73.13
2023-05-19T20:42:41.922Z,73.14
2023-05-19T20:45:10.133Z,73.19
2023-05-19T20:47:38.758Z,73.28
2023-05-19T20:50:07.207Z,73.35
2023-05-19T20:52:35.289Z,73.38
2023-05-19T20:55:03.480Z,73.32
2023-05-19T20:57:31.712Z,73.56
2023-05-19T21:00:01.078Z,73.50
2023-05-19T21:02:29.071Z,73.56
2023-05-19T21:04:57.205Z,73.58
2023-05-19T21:07:25.475Z,73.61
2023-05-19T21:09:54.396Z,73.62
2023-05-19T21:12:28.590Z,73.64
2023-05-19T21:14:56.579Z,73.72
2023-05-19T21:17:24.782Z,73.72
2023-05-19T21:19:57.731Z,73.79
2023-05-19T21:22:26.767Z,73.86
2023-05-19T21:24:55.250Z,73.91
2023-05-19T21:27:23.496Z,74.02
2023-05-19T21:29:53.552Z,73.96
2023-05-19T21:32:22.023Z,73.97
2023-05-19T21:34:50.234Z,74.02
2023-05-19T21:37:18.280Z,74.15
2023-05-19T21:39:46.437Z,74.21
2023-05-19T21:42:14.360Z,74.24
2023-05-19T21:44:42.273Z,74.20
2023-05-19T21:47:10.502Z,74.12
2023-05-19T21:49:40.736Z,74.27
2023-05-19T21:52:08.857Z,74.31
2023-05-19T21:54:36.832Z,74.35
2023-05-19T21:57:04.981Z,74.52
2023-05-19T21:59:32.999Z,74.60
2023-05-19T22:02:00.990Z,74.63
2023-05-19T22:04:31.546Z,74.62
2023-05-19T22:07:01.050Z,74.62
2023-05-19T22:09:29.456Z,74.79
2023-05-19T22:11:57.451Z,74.75
2023-05-19T22:14:25.441Z,74.85
2023-05-19T22:16:53.504Z,74.92
2023-05-19T22:19:21.555Z,75.07
2023-05-19T22:21:53.685Z,75.13
2023-05-19T22:24:26.613Z,75.32
2023-05-19T22:26:54.594Z,75.50
2023-05-19T22:29:22.551Z,75.61
2023-05-19T22:31:50.520Z,75.75
2023-05-19T22:34:18.753Z,75.67
2023-05-19T22:36:46.842Z,75.72
2023-05-19T22:39:14.952Z,75.86
2023-05-19T22:41:42.989Z,76.03
2023-05-19T22:44:13.069Z,76.10
2023-05-19T22:46:41.039Z,76.18
2023-05-19T22:49:08.952Z,76.23
2023-05-19T22:51:36.892Z,76.20
2023-05-19T22:54:05.112Z,76.33
2023-05-19T22:56:33.244Z,76.43
2023-05-19T22:59:01.536Z,76.52
2023-05-19T23:01:29.581Z,76.55
2023-05-19T23:03:57.585Z,76.80
2023-05-19T23:06:25.726Z,76.73
2023-05-19T23:09:03.868Z,76.82
2023-05-19T23:11:31.748Z,76.89
2023-05-19T23:13:59.712Z,77.00
2023-05-19T23:16:27.837Z,76.96
2023-05-19T23:18:55.940Z,77.05
2023-05-19T23:21:24.044Z,77.08
2023-05-19T23:23:52.103Z,77.15
2023-05-19T23:26:20.164Z,77.16
2023-05-19T23:28:48.122Z,77.26
2023-05-19T23:31:16.161Z,77.27
2023-05-19T23:33:44.147Z,77.44
2023-05-19T23:36:12.210Z,77.48
2023-05-19T23:38:40.129Z,77.57
2023-05-19T23:41:08.242Z,77.61
2023-05-19T23:43:36.263Z,77.70
2023-05-19T23:46:04.320Z,77.75
2023-05-19T23:48:33.647Z,77.89
2023-05-19T23:51:01.574Z,77.92
2023-05-19T23:53:29.468Z,78.10
2023-05-19T23:55:58.700Z,78.26
2023-05-19T23:58:26.792Z,78.34
